sensor_id;sensor_type;location;lat;lon;timestamp;pressure;altitude;pressure_sealevel;temperature;humidity
35892;BME280;21993;42.672;23.296;2022-11-12T00:01:08;96055.22;;;12.04;69.82
35892;BME280;21993;42.672;23.296;2022-11-12T00:03:34;96062.19;;;11.92;69.91
35892;BME280;21993;42.672;23.296;2022-11-12T00:05:59;96050.63;;;11.95;69.69
35892;BME280;21993;42.672;23.296;2022-11-12T00:08:24;96049.16;;;11.91;69.67
35892;BME280;21993;42.672;23.296;2022-11-12T00:10:50;96047.06;;;11.83;70.09
35892;BME280;21993;42.672;23.296;2022-11-12T00:13:15;96041.16;;;11.79;70.09
35892;BME280;21993;42.672;23.296;2022-11-12T00:15:41;96032.34;;;11.80;69.56
35892;BME280;21993;42.672;23.296;2022-11-12T00:18:06;96040.75;;;11.73;70.11
35892;BME280;21993;42.672;23.296;2022-11-12T00:20:32;96037.81;;;11.77;69.85
35892;BME280;21993;42.672;23.296;2022-11-12T00:22:57;96041.59;;;11.73;70.11
35892;BME280;21993;42.672;23.296;2022-11-12T00:25:23;96038.34;;;11.70;70.30
35892;BME280;21993;42.672;23.296;2022-11-12T00:27:48;96044.66;;;11.67;70.48
35892;BME280;21993;42.672;23.296;2022-11-12T00:30:14;96048.25;;;11.66;69.98
35892;BME280;21993;42.672;23.296;2022-11-12T00:32:39;96046.75;;;11.75;69.83
35892;BME280;21993;42.672;23.296;2022-11-12T00:35:05;96053.63;;;11.65;70.15
35892;BME280;21993;42.672;23.296;2022-11-12T00:37:31;96051.09;;;11.63;70.66
35892;BME280;21993;42.672;23.296;2022-11-12T00:39:56;96049.06;;;11.67;69.82
35892;BME280;21993;42.672;23.296;2022-11-12T00:42:22;96052.53;;;11.67;70.39
35892;BME280;21993;42.672;23.296;2022-11-12T00:44:47;96054.69;;;11.62;70.51
35892;BME280;21993;42.672;23.296;2022-11-12T00:47:14;96051.69;;;11.67;70.33
35892;BME280;21993;42.672;23.296;2022-11-12T00:49:40;96056.34;;;11.63;70.77
35892;BME280;21993;42.672;23.296;2022-11-12T00:52:05;96062.22;;;11.67;70.31
35892;BME280;21993;42.672;23.296;2022-11-12T00:54:31;96052.06;;;11.62;70.02
35892;BME280;21993;42.672;23.296;2022-11-12T00:56:56;96041.41;;;11.64;70.60
35892;BME280;21993;42.672;23.296;2022-11-12T00:59:21;96039.31;;;11.69;69.67
35892;BME280;21993;42.672;23.296;2022-11-12T01:01:47;96035.50;;;11.60;69.97
35892;BME280;21993;42.672;23.296;2022-11-12T01:04:12;96013.22;;;11.66;69.97
35892;BME280;21993;42.672;23.296;2022-11-12T01:06:38;96016.38;;;11.58;70.05
35892;BME280;21993;42.672;23.296;2022-11-12T01:09:05;96023.00;;;11.64;70.22
35892;BME280;21993;42.672;23.296;2022-11-12T01:11:30;96025.94;;;11.59;69.98
35892;BME280;21993;42.672;23.296;2022-11-12T01:14:02;96035.75;;;11.57;70.01
35892;BME280;21993;42.672;23.296;2022-11-12T01:16:31;96023.66;;;11.54;70.26
35892;BME280;21993;42.672;23.296;2022-11-12T01:19:00;96028.69;;;11.57;70.03
35892;BME280;21993;42.672;23.296;2022-11-12T01:21:28;96019.97;;;11.57;70.51
35892;BME280;21993;42.672;23.296;2022-11-12T01:23:56;96019.47;;;11.52;70.21
35892;BME280;21993;42.672;23.296;2022-11-12T01:26:22;96018.28;;;11.56;70.67
35892;BME280;21993;42.672;23.296;2022-11-12T01:28:48;96016.63;;;11.55;70.79
35892;BME280;21993;42.672;23.296;2022-11-12T01:31:19;96025.22;;;11.57;70.39
35892;BME280;21993;42.672;23.296;2022-11-12T01:33:47;96027.00;;;11.56;70.25
35892;BME280;21993;42.672;23.296;2022-11-12T01:36:14;96016.72;;;11.53;71.38
35892;BME280;21993;42.672;23.296;2022-11-12T01:38:41;96023.03;;;11.51;71.01
35892;BME280;21993;42.672;23.296;2022-11-12T01:41:09;96019.47;;;11.52;70.81
35892;BME280;21993;42.672;23.296;2022-11-12T01:43:35;96013.16;;;11.54;70.95
35892;BME280;21993;42.672;23.296;2022-11-12T01:46:12;96009.69;;;11.54;70.98
35892;BME280;21993;42.672;23.296;2022-11-12T01:48:46;96013.88;;;11.56;70.85
35892;BME280;21993;42.672;23.296;2022-11-12T01:51:14;96013.16;;;11.54;70.68
35892;BME280;21993;42.672;23.296;2022-11-12T01:53:43;96004.41;;;11.54;70.96
35892;BME280;21993;42.672;23.296;2022-11-12T01:56:11;96003.78;;;11.50;71.19
35892;BME280;21993;42.672;23.296;2022-11-12T01:58:37;96000.13;;;11.53;70.56
35892;BME280;21993;42.672;23.296;2022-11-12T02:01:04;96004.31;;;11.55;70.89
35892;BME280;21993;42.672;23.296;2022-11-12T02:03:29;95993.19;;;11.52;70.71
35892;BME280;21993;42.672;23.296;2022-11-12T02:05:59;96003.56;;;11.53;71.07
35892;BME280;21993;42.672;23.296;2022-11-12T02:08:28;96009.56;;;11.55;70.43
35892;BME280;21993;42.672;23.296;2022-11-12T02:10:54;96009.03;;;11.50;70.78
35892;BME280;21993;42.672;23.296;2022-11-12T02:13:19;95990.63;;;11.50;69.84
35892;BME280;21993;42.672;23.296;2022-11-12T02:16:06;95999.28;;;11.52;69.99
35892;BME280;21993;42.672;23.296;2022-11-12T02:18:33;96006.94;;;11.43;70.62
35892;BME280;21993;42.672;23.296;2022-11-12T02:21:03;96011.28;;;11.44;71.16
35892;BME280;21993;42.672;23.296;2022-11-12T02:23:29;96003.09;;;11.36;71.61
35892;BME280;21993;42.672;23.296;2022-11-12T02:25:58;96017.69;;;11.40;71.36
35892;BME280;21993;42.672;23.296;2022-11-12T02:28:24;96010.41;;;11.43;71.94
35892;BME280;21993;42.672;23.296;2022-11-12T02:30:49;96006.94;;;11.43;71.74
35892;BME280;21993;42.672;23.296;2022-11-12T02:33:15;96007.91;;;11.42;71.90
35892;BME280;21993;42.672;23.296;2022-11-12T02:35:40;96010.09;;;11.48;71.09
35892;BME280;21993;42.672;23.296;2022-11-12T02:38:06;96002.22;;;11.48;68.97
35892;BME280;21993;42.672;23.296;2022-11-12T02:40:33;96008.00;;;11.40;69.23
35892;BME280;21993;42.672;23.296;2022-11-12T02:42:58;95994.16;;;11.38;69.47
35892;BME280;21993;42.672;23.296;2022-11-12T02:45:25;96002.66;;;11.42;69.44
35892;BME280;21993;42.672;23.296;2022-11-12T02:47:50;95999.06;;;11.43;68.66
35892;BME280;21993;42.672;23.296;2022-11-12T02:50:15;95997.28;;;11.43;68.38
35892;BME280;21993;42.672;23.296;2022-11-12T02:52:41;95994.75;;;11.42;67.44
35892;BME280;21993;42.672;23.296;2022-11-12T02:55:08;95999.81;;;11.45;66.55
35892;BME280;21993;42.672;23.296;2022-11-12T02:57:35;96005.16;;;11.43;66.69
35892;BME280;21993;42.672;23.296;2022-11-12T03:00:03;95994.25;;;11.37;66.96
35892;BME280;21993;42.672;23.296;2022-11-12T03:02:28;95998.13;;;11.44;67.54
35892;BME280;21993;42.672;23.296;2022-11-12T03:04:54;95990.56;;;11.39;66.97
35892;BME280;21993;42.672;23.296;2022-11-12T03:07:19;95990.38;;;11.30;67.52
35892;BME280;21993;42.672;23.296;2022-11-12T03:09:44;95991.81;;;11.34;68.01
35892;BME280;21993;42.672;23.296;2022-11-12T03:12:10;95997.63;;;11.26;68.08
35892;BME280;21993;42.672;23.296;2022-11-12T03:14:36;95992.47;;;11.24;69.02
35892;BME280;21993;42.672;23.296;2022-11-12T03:17:01;96003.63;;;11.28;68.94
35892;BME280;21993;42.672;23.296;2022-11-12T03:19:27;95998.88;;;11.33;68.20
35892;BME280;21993;42.672;23.296;2022-11-12T03:21:52;95999.53;;;11.24;68.04
35892;BME280;21993;42.672;23.296;2022-11-12T03:24:17;96000.47;;;11.23;68.02
35892;BME280;21993;42.672;23.296;2022-11-12T03:26:43;96000.69;;;11.20;68.25
35892;BME280;21993;42.672;23.296;2022-11-12T03:29:08;96009.09;;;11.25;67.72
35892;BME280;21993;42.672;23.296;2022-11-12T03:31:34;96015.28;;;11.24;68.25
35892;BME280;21993;42.672;23.296;2022-11-12T03:34:00;96015.63;;;11.19;67.60
35892;BME280;21993;42.672;23.296;2022-11-12T03:36:25;96018.25;;;11.19;67.90
35892;BME280;21993;42.672;23.296;2022-11-12T03:38:50;96006.91;;;11.19;67.98
35892;BME280;21993;42.672;23.296;2022-11-12T03:41:16;96007.34;;;11.13;68.75
35892;BME280;21993;42.672;23.296;2022-11-12T03:43:41;96005.78;;;11.10;68.53
35892;BME280;21993;42.672;23.296;2022-11-12T03:46:06;96008.91;;;11.15;68.56
35892;BME280;21993;42.672;23.296;2022-11-12T03:48:32;96001.13;;;11.14;68.39
35892;BME280;21993;42.672;23.296;2022-11-12T03:50:58;96002.28;;;11.10;68.51
35892;BME280;21993;42.672;23.296;2022-11-12T03:53:24;96003.97;;;11.11;68.35
35892;BME280;21993;42.672;23.296;2022-11-12T03:55:49;96002.91;;;11.13;68.13
35892;BME280;21993;42.672;23.296;2022-11-12T03:58:15;96009.00;;;11.14;67.81
35892;BME280;21993;42.672;23.296;2022-11-12T04:00:40;96011.09;;;11.09;67.67
35892;BME280;21993;42.672;23.296;2022-11-12T04:03:06;96007.63;;;11.08;68.16
35892;BME280;21993;42.672;23.296;2022-11-12T04:05:31;96005.97;;;11.07;68.35
35892;BME280;21993;42.672;23.296;2022-11-12T04:08:18;96004.91;;;11.10;67.99
35892;BME280;21993;42.672;23.296;2022-11-12T04:11:08;96001.13;;;11.01;67.90
35892;BME280;21993;42.672;23.296;2022-11-12T04:13:37;96006.28;;;11.03;67.47
35892;BME280;21993;42.672;23.296;2022-11-12T04:16:07;96000.28;;;11.00;67.08
35892;BME280;21993;42.672;23.296;2022-11-12T04:18:53;95999.56;;;10.98;66.79
35892;BME280;21993;42.672;23.296;2022-11-12T04:24:23;95989.38;;;10.94;66.63
35892;BME280;21993;42.672;23.296;2022-11-12T04:27:17;95990.22;;;10.94;65.98
35892;BME280;21993;42.672;23.296;2022-11-12T04:29:44;95983.47;;;10.90;66.18
35892;BME280;21993;42.672;23.296;2022-11-12T04:32:29;95974.44;;;10.82;65.99
35892;BME280;21993;42.672;23.296;2022-11-12T04:34:55;95989.50;;;10.80;66.04
35892;BME280;21993;42.672;23.296;2022-11-12T04:37:23;95989.59;;;10.78;66.07
35892;BME280;21993;42.672;23.296;2022-11-12T04:39:49;95991.47;;;10.76;66.03
35892;BME280;21993;42.672;23.296;2022-11-12T04:42:15;95983.81;;;10.73;66.04
35892;BME280;21993;42.672;23.296;2022-11-12T04:44:59;95989.28;;;10.70;66.03
35892;BME280;21993;42.672;23.296;2022-11-12T04:47:43;95987.78;;;10.66;66.29
35892;BME280;21993;42.672;23.296;2022-11-12T04:50:14;95978.47;;;10.62;66.48
35892;BME280;21993;42.672;23.296;2022-11-12T04:52:40;95989.91;;;10.61;66.91
35892;BME280;21993;42.672;23.296;2022-11-12T04:55:06;95996.63;;;10.65;65.95
35892;BME280;21993;42.672;23.296;2022-11-12T04:57:32;96002.53;;;10.68;66.13
35892;BME280;21993;42.672;23.296;2022-11-12T04:59:57;96008.69;;;10.67;66.14
35892;BME280;21993;42.672;23.296;2022-11-12T05:02:22;96002.59;;;10.67;65.71
35892;BME280;21993;42.672;23.296;2022-11-12T05:04:48;96000.09;;;10.65;64.79
35892;BME280;21993;42.672;23.296;2022-11-12T05:07:13;95997.03;;;10.59;65.07
35892;BME280;21993;42.672;23.296;2022-11-12T05:09:40;96023.09;;;10.62;65.11
35892;BME280;21993;42.672;23.296;2022-11-12T05:12:05;96016.91;;;10.63;64.66
35892;BME280;21993;42.672;23.296;2022-11-12T05:14:31;96015.84;;;10.53;65.09
35892;BME280;21993;42.672;23.296;2022-11-12T05:16:56;96019.41;;;10.52;65.16
35892;BME280;21993;42.672;23.296;2022-11-12T05:19:22;96022.25;;;10.61;64.40
35892;BME280;21993;42.672;23.296;2022-11-12T05:21:47;96033.91;;;10.57;64.27
35892;BME280;21993;42.672;23.296;2022-11-12T05:24:42;96030.53;;;10.55;64.52
35892;BME280;21993;42.672;23.296;2022-11-12T05:29:36;96035.16;;;10.52;64.34
35892;BME280;21993;42.672;23.296;2022-11-12T05:32:03;96033.78;;;10.59;64.52
35892;BME280;21993;42.672;23.296;2022-11-12T05:34:29;96033.50;;;10.63;63.46
35892;BME280;21993;42.672;23.296;2022-11-12T05:36:55;96037.78;;;10.52;64.12
35892;BME280;21993;42.672;23.296;2022-11-12T05:39:20;96031.03;;;10.48;64.90
35892;BME280;21993;42.672;23.296;2022-11-12T05:41:46;96039.69;;;10.62;63.89
35892;BME280;21993;42.672;23.296;2022-11-12T05:44:12;96037.91;;;10.63;63.70
35892;BME280;21993;42.672;23.296;2022-11-12T05:46:37;96032.66;;;10.63;63.06
35892;BME280;21993;42.672;23.296;2022-11-12T05:49:03;96042.31;;;10.62;63.76
35892;BME280;21993;42.672;23.296;2022-11-12T05:51:28;96035.69;;;10.57;64.17
35892;BME280;21993;42.672;23.296;2022-11-12T05:53:53;96040.75;;;10.60;64.46
35892;BME280;21993;42.672;23.296;2022-11-12T05:56:19;96037.16;;;10.61;64.74
35892;BME280;21993;42.672;23.296;2022-11-12T05:58:44;96044.00;;;10.63;64.07
35892;BME280;21993;42.672;23.296;2022-11-12T06:01:10;96043.25;;;10.61;63.86
35892;BME280;21993;42.672;23.296;2022-11-12T06:03:35;96043.88;;;10.65;64.01
35892;BME280;21993;42.672;23.296;2022-11-12T06:06:00;96056.28;;;10.63;64.16
35892;BME280;21993;42.672;23.296;2022-11-12T06:08:27;96049.25;;;10.63;64.13
35892;BME280;21993;42.672;23.296;2022-11-12T06:10:53;96050.91;;;10.64;63.82
35892;BME280;21993;42.672;23.296;2022-11-12T06:13:23;96053.75;;;10.61;64.17
35892;BME280;21993;42.672;23.296;2022-11-12T06:15:51;96055.44;;;10.62;63.96
35892;BME280;21993;42.672;23.296;2022-11-12T06:18:16;96050.69;;;10.67;64.02
35892;BME280;21993;42.672;23.296;2022-11-12T06:20:42;96061.13;;;10.69;63.89
35892;BME280;21993;42.672;23.296;2022-11-12T06:23:07;96056.22;;;10.77;63.64
35892;BME280;21993;42.672;23.296;2022-11-12T06:25:33;96051.47;;;10.82;63.49
35892;BME280;21993;42.672;23.296;2022-11-12T06:27:59;96049.06;;;10.79;63.83
35892;BME280;21993;42.672;23.296;2022-11-12T06:30:24;96059.34;;;10.82;63.72
35892;BME280;21993;42.672;23.296;2022-11-12T06:32:50;96050.44;;;10.85;62.72
35892;BME280;21993;42.672;23.296;2022-11-12T06:35:17;96043.06;;;10.77;63.15
35892;BME280;21993;42.672;23.296;2022-11-12T06:37:46;96041.28;;;10.90;62.98
35892;BME280;21993;42.672;23.296;2022-11-12T06:40:12;96047.81;;;10.85;62.73
35892;BME280;21993;42.672;23.296;2022-11-12T06:42:38;96050.22;;;10.88;62.47
35892;BME280;21993;42.672;23.296;2022-11-12T06:45:04;96059.78;;;10.89;62.81
35892;BME280;21993;42.672;23.296;2022-11-12T06:47:29;96063.56;;;10.97;62.76
35892;BME280;21993;42.672;23.296;2022-11-12T06:49:55;96064.00;;;11.04;62.68
35892;BME280;21993;42.672;23.296;2022-11-12T06:52:20;96071.53;;;11.09;62.91
35892;BME280;21993;42.672;23.296;2022-11-12T06:54:45;96071.25;;;11.13;62.59
35892;BME280;21993;42.672;23.296;2022-11-12T06:57:11;96076.28;;;11.16;62.93
35892;BME280;21993;42.672;23.296;2022-11-12T06:59:36;96066.06;;;11.24;62.38
35892;BME280;21993;42.672;23.296;2022-11-12T07:02:02;96071.03;;;11.29;62.44
35892;BME280;21993;42.672;23.296;2022-11-12T07:04:27;96060.81;;;11.37;61.08
35892;BME280;21993;42.672;23.296;2022-11-12T07:06:52;96058.91;;;11.39;61.10
35892;BME280;21993;42.672;23.296;2022-11-12T07:09:18;96058.69;;;11.42;61.17
35892;BME280;21993;42.672;23.296;2022-11-12T07:11:43;96064.41;;;11.36;60.94
35892;BME280;21993;42.672;23.296;2022-11-12T07:14:09;96062.28;;;11.41;60.95
35892;BME280;21993;42.672;23.296;2022-11-12T07:16:34;96060.69;;;11.51;60.55
35892;BME280;21993;42.672;23.296;2022-11-12T07:18:59;96049.84;;;11.43;61.03
35892;BME280;21993;42.672;23.296;2022-11-12T07:21:25;96046.91;;;11.48;60.32
35892;BME280;21993;42.672;23.296;2022-11-12T07:23:51;96047.88;;;11.47;60.89
35892;BME280;21993;42.672;23.296;2022-11-12T07:26:22;96048.47;;;11.50;60.05
35892;BME280;21993;42.672;23.296;2022-11-12T07:28:49;96062.47;;;11.51;59.97
35892;BME280;21993;42.672;23.296;2022-11-12T07:31:17;96062.09;;;11.44;60.12
35892;BME280;21993;42.672;23.296;2022-11-12T07:33:43;96059.53;;;11.43;59.39
35892;BME280;21993;42.672;23.296;2022-11-12T07:36:11;96055.97;;;11.44;59.34
35892;BME280;21993;42.672;23.296;2022-11-12T07:38:38;96055.88;;;11.45;59.08
35892;BME280;21993;42.672;23.296;2022-11-12T07:43:33;96053.44;;;11.42;58.89
35892;BME280;21993;42.672;23.296;2022-11-12T07:46:00;96052.97;;;11.12;59.27
35892;BME280;21993;42.672;23.296;2022-11-12T07:48:28;96047.78;;;11.23;59.32
35892;BME280;21993;42.672;23.296;2022-11-12T07:51:08;96055.03;;;11.32;59.21
35892;BME280;21993;42.672;23.296;2022-11-12T07:53:35;96055.16;;;11.31;59.58
35892;BME280;21993;42.672;23.296;2022-11-12T07:56:01;96055.75;;;11.34;59.54
35892;BME280;21993;42.672;23.296;2022-11-12T07:58:30;96052.47;;;11.43;58.82
35892;BME280;21993;42.672;23.296;2022-11-12T08:00:55;96051.16;;;11.38;59.19
35892;BME280;21993;42.672;23.296;2022-11-12T08:03:21;96063.13;;;11.42;59.27
35892;BME280;21993;42.672;23.296;2022-11-12T08:05:46;96055.22;;;11.54;58.29
35892;BME280;21993;42.672;23.296;2022-11-12T08:08:12;96054.50;;;11.52;58.45
35892;BME280;21993;42.672;23.296;2022-11-12T08:10:38;96062.38;;;11.52;58.28
35892;BME280;21993;42.672;23.296;2022-11-12T08:13:04;96065.44;;;11.46;57.82
35892;BME280;21993;42.672;23.296;2022-11-12T08:15:30;96059.41;;;11.57;57.83
35892;BME280;21993;42.672;23.296;2022-11-12T08:17:55;96072.44;;;11.59;58.44
35892;BME280;21993;42.672;23.296;2022-11-12T08:20:21;96067.72;;;11.64;58.56
35892;BME280;21993;42.672;23.296;2022-11-12T08:22:47;96070.22;;;11.65;57.92
35892;BME280;21993;42.672;23.296;2022-11-12T08:25:12;96064.53;;;11.71;58.39
35892;BME280;21993;42.672;23.296;2022-11-12T08:27:38;96067.06;;;11.73;58.41
35892;BME280;21993;42.672;23.296;2022-11-12T08:30:04;96062.53;;;11.75;58.38
35892;BME280;21993;42.672;23.296;2022-11-12T08:32:30;96069.25;;;11.92;57.48
35892;BME280;21993;42.672;23.296;2022-11-12T08:34:55;96073.25;;;11.84;57.24
35892;BME280;21993;42.672;23.296;2022-11-12T08:37:21;96076.72;;;11.85;57.17
35892;BME280;21993;42.672;23.296;2022-11-12T08:39:46;96068.28;;;11.93;56.82
35892;BME280;21993;42.672;23.296;2022-11-12T08:42:12;96072.31;;;11.73;57.15
35892;BME280;21993;42.672;23.296;2022-11-12T08:44:37;96072.97;;;11.51;57.63
35892;BME280;21993;42.672;23.296;2022-11-12T08:47:02;96071.31;;;11.63;57.52
35892;BME280;21993;42.672;23.296;2022-11-12T08:49:28;96073.63;;;11.54;57.69
35892;BME280;21993;42.672;23.296;2022-11-12T08:51:54;96079.91;;;11.65;57.04
35892;BME280;21993;42.672;23.296;2022-11-12T08:54:20;96076.13;;;11.69;57.54
35892;BME280;21993;42.672;23.296;2022-11-12T08:56:45;96083.50;;;11.51;57.63
35892;BME280;21993;42.672;23.296;2022-11-12T08:59:10;96081.81;;;11.63;57.64
35892;BME280;21993;42.672;23.296;2022-11-12T09:01:36;96072.16;;;11.50;57.20
35892;BME280;21993;42.672;23.296;2022-11-12T09:04:01;96070.34;;;11.51;57.54
35892;BME280;21993;42.672;23.296;2022-11-12T09:06:26;96071.00;;;11.54;58.10
35892;BME280;21993;42.672;23.296;2022-11-12T09:08:52;96075.22;;;11.44;57.32
35892;BME280;21993;42.672;23.296;2022-11-12T09:11:17;96071.41;;;11.48;57.79
35892;BME280;21993;42.672;23.296;2022-11-12T09:13:43;96077.41;;;11.50;57.46
35892;BME280;21993;42.672;23.296;2022-11-12T09:16:09;96065.94;;;11.64;57.59
35892;BME280;21993;42.672;23.296;2022-11-12T09:18:35;96067.59;;;11.78;57.35
35892;BME280;21993;42.672;23.296;2022-11-12T09:21:06;96063.91;;;11.80;56.38
35892;BME280;21993;42.672;23.296;2022-11-12T09:23:33;96064.53;;;11.71;57.31
35892;BME280;21993;42.672;23.296;2022-11-12T09:25:59;96063.94;;;11.55;57.51
35892;BME280;21993;42.672;23.296;2022-11-12T09:28:25;96065.88;;;11.27;58.02
35892;BME280;21993;42.672;23.296;2022-11-12T09:30:51;96076.47;;;11.39;58.00
35892;BME280;21993;42.672;23.296;2022-11-12T09:33:25;96072.38;;;11.35;58.01
35892;BME280;21993;42.672;23.296;2022-11-12T09:35:52;96070.59;;;11.22;58.25
35892;BME280;21993;42.672;23.296;2022-11-12T09:38:18;96072.16;;;11.25;58.16
35892;BME280;21993;42.672;23.296;2022-11-12T09:43:29;96063.34;;;11.39;57.65
35892;BME280;21993;42.672;23.296;2022-11-12T09:46:02;96070.28;;;11.52;57.85
35892;BME280;21993;42.672;23.296;2022-11-12T09:48:35;96069.31;;;11.53;58.29
35892;BME280;21993;42.672;23.296;2022-11-12T09:51:06;96066.44;;;11.69;57.89
35892;BME280;21993;42.672;23.296;2022-11-12T09:53:48;96066.88;;;11.63;57.19
35892;BME280;21993;42.672;23.296;2022-11-12T09:56:19;96078.03;;;11.54;57.30
35892;BME280;21993;42.672;23.296;2022-11-12T09:58:46;96072.72;;;11.30;58.43
35892;BME280;21993;42.672;23.296;2022-11-12T10:01:18;96073.00;;;11.38;58.33
35892;BME280;21993;42.672;23.296;2022-11-12T10:03:55;96066.69;;;11.53;57.57
35892;BME280;21993;42.672;23.296;2022-11-12T10:06:32;96065.41;;;11.59;57.20
35892;BME280;21993;42.672;23.296;2022-11-12T10:09:11;96064.66;;;11.70;57.04
35892;BME280;21993;42.672;23.296;2022-11-12T10:25:50;96065.03;;;11.76;55.64
35892;BME280;21993;42.672;23.296;2022-11-12T10:28:25;96060.25;;;11.70;56.10
35892;BME280;21993;42.672;23.296;2022-11-12T10:30:55;96066.94;;;11.74;55.71
35892;BME280;21993;42.672;23.296;2022-11-12T10:33:27;96070.66;;;11.72;55.79
35892;BME280;21993;42.672;23.296;2022-11-12T10:35:54;96067.91;;;11.73;55.77
35892;BME280;21993;42.672;23.296;2022-11-12T10:38:24;96062.66;;;11.86;55.93
35892;BME280;21993;42.672;23.296;2022-11-12T10:40:51;96060.84;;;11.74;55.63
35892;BME280;21993;42.672;23.296;2022-11-12T10:45:43;96068.94;;;11.96;56.44
35892;BME280;21993;42.672;23.296;2022-11-12T10:48:29;96065.09;;;12.00;56.39
35892;BME280;21993;42.672;23.296;2022-11-12T10:50:59;96056.81;;;11.94;56.39
35892;BME280;21993;42.672;23.296;2022-11-12T10:53:34;96059.25;;;11.97;57.09
35892;BME280;21993;42.672;23.296;2022-11-12T10:56:02;96053.13;;;11.96;57.40
35892;BME280;21993;42.672;23.296;2022-11-12T10:58:28;96070.38;;;12.00;57.88
35892;BME280;21993;42.672;23.296;2022-11-12T11:01:04;96060.34;;;11.81;58.49
35892;BME280;21993;42.672;23.296;2022-11-12T11:03:34;96056.56;;;11.86;58.08
35892;BME280;21993;42.672;23.296;2022-11-12T11:08:33;96066.13;;;11.87;57.74
35892;BME280;21993;42.672;23.296;2022-11-12T11:13:51;96058.84;;;11.90;57.89
35892;BME280;21993;42.672;23.296;2022-11-12T11:16:20;96064.09;;;11.90;57.57
35892;BME280;21993;42.672;23.296;2022-11-12T11:18:48;96056.00;;;11.68;57.52
35892;BME280;21993;42.672;23.296;2022-11-12T11:26:51;96059.78;;;11.76;57.89
35892;BME280;21993;42.672;23.296;2022-11-12T11:29:41;96060.94;;;11.85;57.97
35892;BME280;21993;42.672;23.296;2022-11-12T11:40:37;96059.16;;;11.73;58.90
35892;BME280;21993;42.672;23.296;2022-11-12T11:49:14;96060.25;;;11.70;58.50
35892;BME280;21993;42.672;23.296;2022-11-12T11:56:55;96058.56;;;11.69;59.06
35892;BME280;21993;42.672;23.296;2022-11-12T12:10:05;96058.53;;;11.82;58.64
35892;BME280;21993;42.672;23.296;2022-11-12T12:13:03;96047.41;;;11.66;58.87
35892;BME280;21993;42.672;23.296;2022-11-12T12:18:52;96038.84;;;11.88;58.86
35892;BME280;21993;42.672;23.296;2022-11-12T12:21:20;96043.03;;;11.90;58.58
35892;BME280;21993;42.672;23.296;2022-11-12T12:24:19;96038.13;;;11.86;59.01
35892;BME280;21993;42.672;23.296;2022-11-12T12:26:49;96033.47;;;11.89;58.58
35892;BME280;21993;42.672;23.296;2022-11-12T12:29:27;96042.50;;;11.98;58.94
35892;BME280;21993;42.672;23.296;2022-11-12T12:32:02;96039.47;;;11.91;59.07
35892;BME280;21993;42.672;23.296;2022-11-12T12:34:34;96044.81;;;12.02;58.33
35892;BME280;21993;42.672;23.296;2022-11-12T12:37:09;96044.13;;;12.11;58.23
35892;BME280;21993;42.672;23.296;2022-11-12T12:40:01;96048.44;;;12.13;58.61
35892;BME280;21993;42.672;23.296;2022-11-12T12:42:41;96053.25;;;12.19;58.52
35892;BME280;21993;42.672;23.296;2022-11-12T12:45:25;96037.69;;;12.16;58.80
35892;BME280;21993;42.672;23.296;2022-11-12T12:47:54;96035.88;;;12.16;59.06
35892;BME280;21993;42.672;23.296;2022-11-12T12:50:22;96046.53;;;12.15;59.58
35892;BME280;21993;42.672;23.296;2022-11-12T12:58:02;96045.56;;;12.16;61.40
35892;BME280;21993;42.672;23.296;2022-11-12T13:00:39;96054.81;;;12.21;61.13
35892;BME280;21993;42.672;23.296;2022-11-12T13:03:05;96047.41;;;12.26;61.38
35892;BME280;21993;42.672;23.296;2022-11-12T13:05:35;96045.69;;;12.14;60.45
35892;BME280;21993;42.672;23.296;2022-11-12T13:08:19;96047.88;;;11.96;61.08
35892;BME280;21993;42.672;23.296;2022-11-12T13:10:49;96043.50;;;11.71;61.77
35892;BME280;21993;42.672;23.296;2022-11-12T13:15:49;96051.28;;;11.73;62.68
35892;BME280;21993;42.672;23.296;2022-11-12T13:23:46;96062.94;;;11.94;62.80
35892;BME280;21993;42.672;23.296;2022-11-12T13:32:32;96056.06;;;12.04;64.54
35892;BME280;21993;42.672;23.296;2022-11-12T13:37:43;96061.22;;;11.93;65.06
35892;BME280;21993;42.672;23.296;2022-11-12T13:43:03;96061.91;;;11.84;65.57
35892;BME280;21993;42.672;23.296;2022-11-12T13:45:31;96061.81;;;11.86;65.59
35892;BME280;21993;42.672;23.296;2022-11-12T13:48:00;96065.47;;;11.83;66.02
35892;BME280;21993;42.672;23.296;2022-11-12T13:50:30;96065.88;;;11.90;65.45
35892;BME280;21993;42.672;23.296;2022-11-12T13:52:56;96059.16;;;11.73;65.98
35892;BME280;21993;42.672;23.296;2022-11-12T13:55:22;96066.94;;;11.74;66.39
35892;BME280;21993;42.672;23.296;2022-11-12T13:57:55;96061.44;;;11.41;67.53
35892;BME280;21993;42.672;23.296;2022-11-12T14:00:24;96062.09;;;11.32;68.21
35892;BME280;21993;42.672;23.296;2022-11-12T14:03:02;96054.91;;;11.46;67.81
35892;BME280;21993;42.672;23.296;2022-11-12T14:05:31;96058.19;;;11.37;68.53
35892;BME280;21993;42.672;23.296;2022-11-12T14:08:35;96056.81;;;11.44;68.62
35892;BME280;21993;42.672;23.296;2022-11-12T14:22:38;96061.03;;;11.09;68.60
35892;BME280;21993;42.672;23.296;2022-11-12T14:25:13;96066.41;;;11.07;68.41
35892;BME280;21993;42.672;23.296;2022-11-12T14:27:40;96059.47;;;11.06;68.53
35892;BME280;21993;42.672;23.296;2022-11-12T14:32:36;96062.28;;;10.90;68.62
35892;BME280;21993;42.672;23.296;2022-11-12T14:35:26;96066.81;;;10.88;69.22
35892;BME280;21993;42.672;23.296;2022-11-12T14:40:30;96061.66;;;10.99;69.07
35892;BME280;21993;42.672;23.296;2022-11-12T14:42:56;96060.31;;;11.07;69.24
35892;BME280;21993;42.672;23.296;2022-11-12T14:45:22;96060.31;;;11.19;68.50
35892;BME280;21993;42.672;23.296;2022-11-12T14:47:50;96060.72;;;11.26;68.31
35892;BME280;21993;42.672;23.296;2022-11-12T14:50:36;96054.84;;;11.22;68.59